Time;durP1;ratioP1;P1;durP2;ratioP2;P2;SDS_P1;SDS_P2;PMS_P1;PMS_P2;Temp;Humidity;BMP_temperature;BMP_pressure;BME280_temperature;BME280_humidity;BME280_pressure;Samples;Min_cycle;Max_cycle;Signal;HPM_P1;HPM_P2
2022/09/13 00:00:29;;;;;;;3.08;2.63;;;;;;;17.03;92.04;100074.31;8355957;28;20037;-48
2022/09/13 00:04:29;;;;;;;4.32;3.20;;;;;;;17.09;91.44;100065.34;8356714;28;20037;-49
2022/09/13 00:08:30;;;;;;;4.57;3.40;;;;;;;17.14;90.95;100060.13;8356768;28;20317;-48
2022/09/13 00:12:30;;;;;;;5.80;3.35;;;;;;;17.15;90.68;100063.72;8354888;28;20788;-47
2022/09/13 00:16:30;;;;;;;4.53;3.13;;;;;;;17.21;90.59;100060.22;8356022;28;20423;-49
2022/09/13 00:20:31;;;;;;;5.38;3.00;;;;;;;17.02;92.77;100048.00;8357136;28;20091;-48
2022/09/13 00:24:32;;;;;;;4.07;3.00;;;;;;;17.09;91.82;100061.75;8360825;28;20036;-49
2022/09/13 00:28:33;;;;;;;4.47;2.90;;;;;;;17.15;91.26;100060.97;8362422;28;20052;-47
2022/09/13 00:32:34;;;;;;;5.47;3.20;;;;;;;17.13;91.92;100052.13;8362508;28;20041;-48
2022/09/13 00:36:34;;;;;;;4.70;3.40;;;;;;;17.20;92.17;100053.88;8353256;28;20033;-47
2022/09/13 00:40:37;;;;;;;9.02;3.38;;;;;;;17.20;91.93;100058.53;8358133;28;20128;-48
2022/09/13 00:44:56;;;;;;;4.47;2.95;;;;;;;17.15;92.92;100055.53;8354320;28;20131;-48
2022/09/13 00:49:06;;;;;;;4.15;3.28;;;;;;;17.21;93.79;100055.59;8357208;28;20032;-50
2022/09/13 00:53:15;;;;;;;4.05;3.20;;;;;;;16.92;95.63;100054.81;8355978;28;20498;-47
2022/09/13 00:57:18;;;;;;;4.93;3.65;;;;;;;16.97;93.66;100052.38;8357243;28;20033;-47
2022/09/13 01:01:22;;;;;;;7.15;3.50;;;;;;;16.84;95.43;100052.22;8388655;28;20041;-47
2022/09/13 01:05:29;;;;;;;4.03;3.63;;;;;;;16.81;95.77;100052.63;8357295;28;20052;-48
2022/09/13 01:09:32;;;;;;;4.53;3.25;;;;;;;16.94;94.89;100052.75;8357261;28;20040;-48
2022/09/13 01:13:34;;;;;;;8.30;3.38;;;;;;;16.83;96.96;100058.69;8356441;28;20048;-47
2022/09/13 01:17:35;;;;;;;3.75;3.03;;;;;;;16.70;96.36;100058.56;8356226;28;20456;-48
2022/09/13 01:22:06;;;;;;;6.70;3.50;;;;;;;16.80;95.08;100056.38;8354893;28;20063;-48
2022/09/13 01:26:46;;;;;;;5.57;3.40;;;;;;;16.76;95.68;100050.47;8352863;28;20037;-47
2022/09/13 01:31:00;;;;;;;7.38;3.63;;;;;;;16.83;95.33;100055.97;8351446;28;20445;-48
2022/09/13 01:35:10;;;;;;;;;;;;;;;16.90;96.10;100057.75;8354208;28;20052;-47
2022/09/13 01:39:22;;;;;;;3.78;3.42;;;;;;;16.92;96.22;100054.81;8355889;28;20382;-47
2022/09/13 01:47:57;;;;;;;5.32;3.95;;;;;;;16.87;95.75;100051.84;8278707;27;20406;-46
2022/09/13 01:52:16;;;;;;;4.05;3.42;;;;;;;16.74;96.77;100036.13;8284172;28;20181;-48
2022/09/13 01:56:25;;;;;;;4.18;3.45;;;;;;;16.65;97.75;100039.19;8282809;28;20034;-48
2022/09/13 02:00:27;;;;;;;4.18;3.78;;;;;;;16.71;97.38;100041.97;8282159;28;20495;-50
2022/09/13 02:04:35;;;;;;;5.90;3.63;;;;;;;16.77;96.88;100032.19;8283410;28;20495;-49
2022/09/13 02:08:41;;;;;;;3.88;3.58;;;;;;;16.72;97.25;100034.66;8283408;28;20042;-48
2022/09/13 02:12:42;;;;;;;3.92;3.35;;;;;;;16.85;96.32;100032.06;8279084;28;20042;-48
2022/09/13 02:16:55;;;;;;;6.45;3.60;;;;;;;16.87;95.86;100030.81;8282164;28;20034;-48
2022/09/13 02:21:01;;;;;;;4.22;3.83;;;;;;;16.86;95.94;100022.81;8281799;28;20432;-48
2022/09/13 02:25:08;;;;;;;3.78;3.40;;;;;;;16.90;96.11;100019.53;8279358;28;20046;-48
2022/09/13 02:29:13;;;;;;;6.47;3.75;;;;;;;16.95;95.63;100010.75;8282288;28;20046;-48
2022/09/13 02:33:20;;;;;;;6.80;3.38;;;;;;;17.00;94.93;100000.09;8280951;28;20042;-48
2022/09/13 02:37:23;;;;;;;4.90;3.15;;;;;;;17.00;95.76;100009.16;8280383;28;20495;-49
2022/09/13 02:41:47;;;;;;;4.75;3.42;;;;;;;17.01;96.51;100009.97;8282168;28;20041;-49
2022/09/13 02:50:51;;;;;;;6.47;3.63;;;;;;;16.99;99.24;100012.91;8419712;27;20411;-46
2022/09/13 02:55:15;;;;;;;4.82;3.58;;;;;;;17.06;99.54;100008.38;8417119;27;20033;-47
2022/09/13 02:59:19;;;;;;;4.15;3.58;;;;;;;17.04;99.78;99998.66;8398666;27;20044;-47
2022/09/13 03:03:20;;;;;;;3.97;3.10;;;;;;;17.08;99.79;99999.97;8386309;28;20033;-47
2022/09/13 03:07:20;;;;;;;4.38;3.65;;;;;;;17.08;100.00;100003.53;8385631;28;20059;-49
2022/09/13 03:11:55;;;;;;;4.33;3.63;;;;;;;17.13;99.68;99994.75;8385766;28;20033;-47
2022/09/13 03:16:33;;;;;;;6.75;4.00;;;;;;;17.18;99.16;99989.56;8379222;28;20304;-47
2022/09/13 03:20:51;;;;;;;5.05;3.40;;;;;;;17.23;98.32;99992.56;8382104;28;20025;-50
2022/09/13 03:25:21;;;;;;;5.20;3.22;;;;;;;17.34;97.38;99990.16;8376600;28;20024;-48
2022/09/13 03:29:30;;;;;;;7.35;3.10;;;;;;;17.41;97.12;99990.19;8382740;28;20039;-48
2022/09/13 03:33:45;;;;;;;5.50;3.47;;;;;;;17.53;97.65;99988.63;8382718;28;20068;-47
2022/09/13 03:37:56;;;;;;;7.88;3.10;;;;;;;17.54;97.45;99987.63;8383787;28;20071;-47
2022/09/13 03:42:01;;;;;;;5.63;2.55;;;;;;;17.60;94.01;99978.63;8384650;28;20480;-50
2022/09/13 03:46:08;;;;;;;7.50;2.85;;;;;;;17.89;92.42;99972.06;8384522;28;20031;-48
2022/09/13 03:50:13;;;;;;;3.40;2.55;;;;;;;17.91;91.68;99986.41;8384117;28;20120;-47
2022/09/13 03:54:15;;;;;;;;;;;;;;;17.87;91.44;99991.41;8384018;28;20032;-47
2022/09/13 03:58:18;;;;;;;9.55;2.97;;;;;;;17.65;98.16;99984.31;8379284;28;20039;-47
2022/09/13 04:02:19;;;;;;;2.55;2.35;;;;;;;17.73;94.29;99984.19;8361088;28;20036;-49
2022/09/13 04:06:20;;;;;;;5.60;2.72;;;;;;;17.73;95.38;99999.72;8355931;28;20044;-48
2022/09/13 04:10:23;;;;;;;5.45;2.80;;;;;;;17.78;94.61;100002.72;8359200;28;20132;-48
2022/09/13 04:14:25;;;;;;;4.25;2.78;;;;;;;17.79;95.59;99994.31;8392767;28;20044;-47
2022/09/13 04:18:26;;;;;;;5.93;3.13;;;;;;;17.63;100.00;100000.91;8392803;28;20560;-48
2022/09/13 04:22:27;;;;;;;6.88;2.92;;;;;;;17.80;96.83;100004.22;8393675;28;20390;-47
2022/09/13 04:26:27;;;;;;;5.13;2.72;;;;;;;17.81;95.14;100005.06;8361754;28;20060;-47
2022/09/13 04:30:28;;;;;;;5.60;3.15;;;;;;;17.93;92.50;100009.75;8357593;28;20033;-48
2022/09/13 04:34:29;;;;;;;4.75;2.97;;;;;;;17.94;92.74;100013.34;8356631;28;20379;-47
2022/09/13 04:38:30;;;;;;;5.28;3.15;;;;;;;17.85;94.17;100022.75;8357272;28;20025;-47
2022/09/13 04:42:31;;;;;;;4.60;3.50;;;;;;;17.68;96.20;100019.47;8356388;28;20090;-47
2022/09/13 04:46:31;;;;;;;5.57;3.17;;;;;;;17.59;97.99;100016.03;8355652;28;20112;-48
2022/09/13 04:50:31;;;;;;;7.43;4.63;;;;;;;17.60;97.77;100016.91;8354784;28;20041;-49
2022/09/13 04:54:32;;;;;;;4.38;4.05;;;;;;;17.66;100.00;100017.97;8352309;28;20025;-47
2022/09/13 04:58:32;;;;;;;5.95;3.72;;;;;;;17.64;100.00;100012.72;8354037;28;20406;-47
2022/09/13 05:02:33;;;;;;;5.03;3.47;;;;;;;17.46;100.00;100015.06;8357226;28;20033;-47
2022/09/13 05:06:34;;;;;;;5.75;4.50;;;;;;;17.49;100.00;100010.06;8356028;28;20040;-48
2022/09/13 05:10:34;;;;;;;8.15;4.13;;;;;;;17.66;100.00;100007.03;8356259;28;20516;-47
2022/09/13 05:14:35;;;;;;;9.83;4.43;;;;;;;17.65;100.00;100008.94;8356046;28;20371;-51
2022/09/13 05:18:35;;;;;;;6.68;3.83;;;;;;;17.64;100.00;100007.25;8355826;28;20282;-49
2022/09/13 05:22:36;;;;;;;6.00;3.92;;;;;;;17.65;100.00;100003.47;8355413;28;20021;-47
2022/09/13 05:26:36;;;;;;;6.00;3.87;;;;;;;17.65;99.72;100006.19;8354050;28;20044;-47
2022/09/13 05:30:37;;;;;;;3.75;3.38;;;;;;;17.75;98.11;100012.16;8355669;28;21088;-47
2022/09/13 05:34:37;;;;;;;4.18;3.33;;;;;;;17.83;97.68;100003.81;8354984;28;20040;-48
2022/09/13 05:38:38;;;;;;;3.97;3.30;;;;;;;17.86;97.50;100006.16;8353449;28;20414;-47
2022/09/13 05:42:38;;;;;;;6.65;3.80;;;;;;;17.84;97.50;99985.53;8343574;28;20036;-48
2022/09/13 05:46:39;;;;;;;6.50;4.38;;;;;;;17.87;97.14;99985.94;8352813;28;20120;-50
2022/09/13 05:50:40;;;;;;;6.30;3.42;;;;;;;17.98;96.67;99999.06;8354274;28;20470;-47
2022/09/13 05:54:40;;;;;;;4.30;3.90;;;;;;;18.04;96.34;99995.53;8353327;28;20119;-47
2022/09/13 05:58:43;;;;;;;3.88;3.28;;;;;;;18.12;96.77;100017.28;8352932;28;20041;-50
2022/09/13 06:02:43;;;;;;;5.90;4.07;;;;;;;18.01;99.10;100014.22;8353509;28;20107;-47
2022/09/13 06:06:43;;;;;;;5.70;3.97;;;;;;;17.99;100.00;100019.91;8354197;28;20036;-49
2022/09/13 06:10:53;;;;;;;5.57;3.90;;;;;;;18.10;97.55;100024.84;8354484;28;20275;-47
2022/09/13 06:14:53;;;;;;;5.35;3.33;;;;;;;18.17;98.24;100020.22;8354526;28;20669;-49
2022/09/13 06:18:53;;;;;;;9.00;3.50;;;;;;;18.36;95.73;100019.50;8337451;28;20024;-47
2022/09/13 06:22:54;;;;;;;8.27;2.90;;;;;;;18.52;94.63;100015.63;8354647;28;20032;-47
2022/09/13 06:26:54;;;;;;;5.03;3.00;;;;;;;18.56;94.34;99993.09;8354668;28;20171;-47
2022/09/13 06:31:09;;;;;;;5.60;3.20;;;;;;;18.60;96.24;99999.03;8354820;28;20268;-47
2022/09/13 06:35:10;;;;;;;5.15;3.10;;;;;;;18.65;95.96;100010.19;8347816;28;20048;-48
2022/09/13 06:39:11;;;;;;;6.88;3.75;;;;;;;18.66;97.96;100001.78;8354089;28;20033;-47
2022/09/13 06:43:11;;;;;;;7.93;3.75;;;;;;;18.72;96.53;100003.69;8354487;28;20063;-47
2022/09/13 06:47:12;;;;;;;4.50;3.30;;;;;;;18.81;95.32;100005.19;8353498;28;20079;-47
2022/09/13 06:51:15;;;;;;;4.35;3.08;;;;;;;18.96;95.13;100002.28;8354426;28;20533;-47
2022/09/13 06:55:16;;;;;;;3.53;3.22;;;;;;;19.09;93.48;100005.91;8354071;28;20041;-47
2022/09/13 06:59:16;;;;;;;6.40;3.75;;;;;;;19.11;96.22;100009.28;8352933;28;20037;-48
2022/09/13 07:03:16;;;;;;;5.95;3.65;;;;;;;19.12;94.87;100007.41;8351697;28;20498;-47
2022/09/13 07:07:18;;;;;;;4.03;3.35;;;;;;;19.22;93.68;100011.41;8350328;28;20041;-47
2022/09/13 07:11:20;;;;;;;8.80;3.88;;;;;;;19.34;92.36;100015.25;8352963;28;20124;-47
2022/09/13 07:15:21;;;;;;;7.13;3.05;;;;;;;19.52;92.00;100008.31;8344911;28;20099;-47
2022/09/13 07:19:25;;;;;;;7.93;3.20;;;;;;;19.67;92.36;100000.72;8351325;28;20040;-50
2022/09/13 07:23:25;;;;;;;3.25;2.45;;;;;;;19.91;90.22;100005.56;8352193;28;20071;-48
2022/09/13 07:27:26;;;;;;;4.33;2.70;;;;;;;20.08;88.25;100013.13;8350096;28;20059;-49
2022/09/13 07:31:30;;;;;;;4.97;2.70;;;;;;;20.27;86.88;100008.66;8351520;28;20345;-47
2022/09/13 07:35:30;;;;;;;7.43;2.42;;;;;;;20.44;84.11;100008.00;8355572;28;20438;-49
2022/09/13 07:39:30;;;;;;;7.30;2.50;;;;;;;20.68;82.90;100014.66;8358069;28;20110;-48
2022/09/13 07:43:33;;;;;;;5.80;2.40;;;;;;;20.92;83.67;100011.19;8358816;28;20295;-48
2022/09/13 07:47:34;;;;;;;5.45;2.28;;;;;;;21.10;82.17;100025.03;8358500;28;20048;-47
2022/09/13 07:51:38;;;;;;;8.18;2.58;;;;;;;21.37;80.95;100020.25;8359774;28;20033;-48
2022/09/13 07:55:38;;;;;;;3.45;2.42;;;;;;;21.49;81.56;100024.78;8351932;28;20368;-48
2022/09/13 07:59:39;;;;;;;10.48;2.90;;;;;;;21.64;79.56;100008.81;8358432;28;20383;-49
2022/09/13 08:03:40;;;;;;;3.53;2.85;;;;;;;21.82;80.28;100008.91;8369053;28;20039;-47
2022/09/13 08:07:40;;;;;;;5.68;2.58;;;;;;;22.06;78.47;100016.28;8358730;28;20060;-49
2022/09/13 08:11:43;;;;;;;7.93;2.38;;;;;;;22.31;77.46;100019.84;8354208;28;20041;-48
2022/09/13 08:15:43;;;;;;;5.60;2.15;;;;;;;22.60;75.90;100008.06;8353844;28;20041;-50
2022/09/13 08:19:44;;;;;;;9.73;2.38;;;;;;;22.70;74.69;100011.16;8363155;28;20136;-49
2022/09/13 08:23:44;;;;;;;9.10;2.25;;;;;;;23.08;73.13;100010.84;8355419;28;20452;-48
2022/09/13 08:27:45;;;;;;;3.70;1.70;;;;;;;23.17;72.01;100020.47;8354529;28;20037;-47
2022/09/13 08:31:45;;;;;;;5.38;2.00;;;;;;;23.53;70.85;100014.00;8368969;28;20075;-48
2022/09/13 08:35:51;;;;;;;6.72;1.98;;;;;;;23.71;71.01;100016.69;8361955;28;20041;-50
2022/09/13 08:39:51;;;;;;;5.40;1.80;;;;;;;23.58;71.36;100025.19;8381564;28;20033;-48
2022/09/13 08:44:31;;;;;;;7.97;1.50;;;;;;;23.98;70.21;100023.47;8357163;28;20044;-49
2022/09/13 08:48:38;;;;;;;7.38;1.73;;;;;;;24.23;69.71;100032.38;8352573;28;20064;-50
2022/09/13 08:52:50;;;;;;;3.65;1.42;;;;;;;24.54;65.69;100023.69;8357532;28;20040;-48
2022/09/13 09:01:16;;;;;;;3.25;0.90;;;;;;;24.86;64.77;100011.97;8319429;27;20398;-49
2022/09/13 09:05:22;;;;;;;4.63;1.00;;;;;;;25.20;63.50;100024.00;8312794;28;20041;-50
2022/09/13 09:09:22;;;;;;;6.28;1.40;;;;;;;25.40;64.25;100013.34;8314343;28;20120;-47
2022/09/13 09:13:30;;;;;;;2.97;1.10;;;;;;;25.36;63.04;100023.25;8314544;28;20053;-48
2022/09/13 09:17:45;;;;;;;6.28;1.30;;;;;;;24.94;63.17;100016.28;8315131;28;20026;-47
2022/09/13 09:21:49;;;;;;;5.60;1.00;;;;;;;25.56;63.79;100023.63;8316646;28;20521;-48
2022/09/13 09:25:51;;;;;;;;;;;;;;;25.82;62.99;100036.81;8316680;28;20048;-48
2022/09/13 09:29:57;;;;;;;3.97;1.15;;;;;;;25.66;62.70;100032.13;8316997;28;20007;-49
2022/09/13 09:34:15;;;;;;;2.10;0.98;;;;;;;26.40;61.82;100042.78;8315902;28;20145;-48
2022/09/13 09:42:42;;;;;;;6.40;1.35;;;;;;;26.76;61.26;100036.66;8316585;27;20380;-47
2022/09/13 09:46:48;;;;;;;5.38;1.00;;;;;;;26.92;58.65;100034.09;8316586;28;20049;-46
2022/09/13 09:50:53;;;;;;;5.65;1.15;;;;;;;27.46;57.82;100031.16;8317458;28;20542;-47
2022/09/13 09:55:01;;;;;;;9.88;1.10;;;;;;;28.90;55.55;100035.31;8316036;28;20132;-47
2022/09/13 09:59:02;;;;;;;4.32;1.30;;;;;;;30.47;52.82;100037.31;8316575;28;20079;-51
2022/09/13 10:03:07;;;;;;;7.53;1.48;;;;;;;31.59;50.45;100034.66;8312451;28;20034;-48
2022/09/13 10:11:55;;;;;;;2.53;1.08;;;;;;;30.41;51.49;100031.72;8342782;27;20377;-48
2022/09/13 10:15:59;;;;;;;4.40;1.25;;;;;;;30.71;50.55;100024.41;8273707;28;20416;-48
2022/09/13 10:20:05;;;;;;;6.00;1.33;;;;;;;30.38;51.21;100012.75;8304545;28;20045;-47
2022/09/13 10:24:20;;;;;;;9.82;2.00;;;;;;;29.85;51.90;100013.31;8299037;28;20059;-51
2022/09/13 10:28:21;;;;;;;5.07;1.30;;;;;;;29.41;52.58;100009.34;8293917;28;20502;-48
2022/09/13 10:32:22;;;;;;;9.10;1.30;;;;;;;28.60;54.69;99999.00;8280233;28;20060;-47
2022/09/13 10:36:28;;;;;;;9.05;1.30;;;;;;;28.01;56.27;99994.69;8331170;28;20044;-47
2022/09/13 10:40:33;;;;;;;5.32;1.67;;;;;;;27.68;56.96;100000.50;8330988;28;20053;-50
2022/09/13 10:48:55;;;;;;;6.57;1.33;;;;;;;29.08;54.32;99986.69;8391103;27;20920;-47
2022/09/13 10:52:58;;;;;;;7.40;1.88;;;;;;;29.58;54.98;99979.28;8350572;28;20060;-47
2022/09/13 10:56:59;;;;;;;5.30;1.30;;;;;;;29.49;53.30;99980.13;8356015;28;20053;-47
2022/09/13 11:01:17;;;;;;;4.00;1.35;;;;;;;29.25;53.53;99982.59;8353150;28;20041;-49
2022/09/13 11:05:46;;;;;;;5.63;1.40;;;;;;;29.03;53.59;99970.78;8349335;28;20037;-47
2022/09/13 11:10:22;;;;;;;5.15;1.40;;;;;;;30.75;51.04;99961.31;8330618;28;20076;-48
2022/09/13 11:14:52;;;;;;;6.25;1.35;;;;;;;31.31;50.29;99965.50;8336410;28;20041;-47
2022/09/13 11:23:53;;;;;;;2.83;1.48;;;;;;;32.56;47.89;99950.41;8392569;27;22160;-48
2022/09/13 11:28:06;;;;;;;6.57;1.23;;;;;;;32.88;46.53;99953.41;8357588;28;20503;-48
2022/09/13 11:32:46;;;;;;;3.15;1.20;;;;;;;34.06;45.51;99946.53;8357129;28;20060;-49
2022/09/13 11:41:18;;;;;;;5.60;1.20;;;;;;;34.74;43.79;99947.47;8406293;27;20179;-49
2022/09/13 11:45:44;;;;;;;7.45;1.60;;;;;;;34.03;44.91;99949.97;8403550;28;20040;-47
2022/09/13 11:50:13;;;;;;;6.75;1.30;;;;;;;31.92;47.82;99949.94;8447268;28;20110;-48
2022/09/13 11:54:38;;;;;;;4.65;1.30;;;;;;;32.44;48.69;99947.19;8446590;28;20543;-48
2022/09/13 11:58:49;;;;;;;5.82;1.45;;;;;;;31.42;48.33;99933.56;8404162;28;20504;-48
2022/09/13 12:07:33;;;;;;;8.05;1.40;;;;;;;31.56;48.79;99929.00;8314891;27;20415;-49
2022/09/13 12:11:38;;;;;;;4.28;1.20;;;;;;;32.66;47.43;99933.50;8308362;28;20034;-51
2022/09/13 12:15:42;;;;;;;4.70;1.33;;;;;;;33.17;46.75;99926.09;8301936;28;20048;-48
2022/09/13 12:19:49;;;;;;;7.95;1.25;;;;;;;32.21;47.46;99925.59;8312053;28;20379;-48
2022/09/13 12:24:01;;;;;;;6.65;1.38;;;;;;;31.93;47.29;99927.28;8300587;28;20679;-47
2022/09/13 12:28:12;;;;;;;7.75;1.52;;;;;;;32.96;46.42;99921.91;8290019;28;20054;-48
2022/09/13 12:32:14;;;;;;;5.68;1.20;;;;;;;32.13;47.26;99912.25;8323839;28;20037;-47
2022/09/13 12:36:43;;;;;;;8.65;1.42;;;;;;;31.27;50.10;99908.50;8343025;28;20442;-47
2022/09/13 12:41:08;;;;;;;5.65;1.85;;;;;;;29.96;52.09;99911.84;8340808;28;20034;-48
2022/09/13 12:45:40;;;;;;;6.18;1.80;;;;;;;29.60;52.68;99899.03;8342358;28;20037;-51
2022/09/13 12:49:58;;;;;;;11.77;1.85;;;;;;;28.27;55.18;99902.03;8325666;28;20462;-48
2022/09/13 12:54:19;;;;;;;6.20;1.60;;;;;;;28.46;55.30;99892.13;8353623;28;20041;-47
2022/09/13 12:58:37;;;;;;;8.10;1.58;;;;;;;28.80;55.80;99898.91;8322466;28;20774;-48
2022/09/13 13:02:49;;;;;;;5.55;1.50;;;;;;;28.64;55.70;99899.97;8306429;28;20060;-50
2022/09/13 13:11:08;;;;;;;10.55;1.20;;;;;;;28.72;55.25;99895.84;8317992;27;20392;-53
2022/09/13 13:19:33;;;;;;;4.18;1.63;;;;;;;28.24;55.87;99894.22;8295948;28;20821;-50
2022/09/13 13:23:37;;;;;;;4.65;1.38;;;;;;;28.23;55.60;99881.41;8279946;28;20042;-52
2022/09/13 13:27:39;;;;;;;;;;;;;;;28.22;55.85;99888.09;8282839;28;20065;-54
2022/09/13 13:31:43;;;;;;;8.95;1.70;;;;;;;28.23;55.75;99881.41;8280057;28;20027;-54
2022/09/13 13:35:44;;;;;;;5.43;1.30;;;;;;;28.49;56.58;99880.44;8282924;28;20038;-54
2022/09/13 13:39:46;;;;;;;11.18;1.58;;;;;;;28.64;56.36;99866.59;8285062;28;20061;-52
2022/09/13 13:43:47;;;;;;;3.45;1.45;;;;;;;28.70;55.01;99865.50;8284396;28;20042;-51
2022/09/13 13:47:55;;;;;;;2.38;0.98;;;;;;;28.25;57.20;99866.13;8278734;28;20480;-52
2022/09/13 14:00:46;;;;;;;6.85;1.20;;;;;;;28.55;55.93;99862.66;8389068;27;20431;-54
2022/09/13 14:05:26;;;;;;;6.93;1.10;;;;;;;28.58;56.58;99856.56;8377718;28;20111;-54
2022/09/13 14:09:39;;;;;;;3.85;1.25;;;;;;;28.55;56.40;99851.53;8376133;28;20033;-53
2022/09/13 14:22:37;;;;;;;6.32;1.23;;;;;;;28.13;56.11;99842.44;8379263;27;20369;-51
2022/09/13 14:26:39;;;;;;;8.77;1.38;;;;;;;28.41;56.18;99839.22;8382330;28;20040;-49
2022/09/13 14:30:39;;;;;;;7.72;1.02;;;;;;;28.47;56.20;99843.72;8382313;27;20036;-50
2022/09/13 14:34:51;;;;;;;4.15;1.40;;;;;;;28.47;56.75;99843.72;8384185;27;20123;-50
2022/09/13 14:38:57;;;;;;;6.50;1.40;;;;;;;28.41;56.10;99850.34;8392885;27;20036;-50
2022/09/13 14:42:57;;;;;;;7.28;1.65;;;;;;;28.14;55.85;99849.66;8389875;27;20341;-51
2022/09/13 14:47:26;;;;;;;5.43;1.17;;;;;;;27.95;57.03;99851.25;8366640;27;20041;-50
2022/09/13 14:51:49;;;;;;;7.07;1.17;;;;;;;27.85;58.18;99835.31;8360079;28;20036;-50
2022/09/13 14:55:55;;;;;;;6.65;1.13;;;;;;;27.67;57.99;99837.69;8362581;28;20041;-49
2022/09/13 14:59:59;;;;;;;5.97;1.42;;;;;;;27.58;59.87;99844.88;8363328;28;20044;-49
2022/09/13 15:04:03;;;;;;;7.43;1.52;;;;;;;27.49;60.02;99849.25;8360540;28;20040;-49
2022/09/13 15:08:25;;;;;;;14.85;1.63;;;;;;;27.24;59.99;99849.00;8360831;28;20036;-51
2022/09/13 15:12:27;;;;;;;8.85;1.63;;;;;;;27.07;60.48;99840.00;8352467;28;20037;-51
2022/09/13 15:16:30;;;;;;;5.03;1.80;;;;;;;27.12;60.61;99840.03;8353816;28;20049;-52
2022/09/13 15:20:49;;;;;;;13.63;1.38;;;;;;;27.12;60.77;99845.56;8379535;28;20040;-51
2022/09/13 15:24:54;;;;;;;4.93;1.27;;;;;;;27.04;61.17;99846.91;8383256;27;20060;-51
2022/09/13 15:28:59;;;;;;;4.75;1.10;;;;;;;26.94;60.94;99844.03;8378972;28;20155;-52
2022/09/13 15:33:15;;;;;;;5.50;1.50;;;;;;;26.90;61.24;99847.59;8366870;28;20471;-49
2022/09/13 15:37:15;;;;;;;7.00;1.48;;;;;;;26.78;61.73;99842.22;8339599;28;20040;-50
2022/09/13 15:41:18;;;;;;;10.38;1.88;;;;;;;26.59;63.58;99852.78;8336026;28;20600;-49
2022/09/13 15:45:20;;;;;;;10.48;1.58;;;;;;;26.31;63.70;99855.78;8326952;28;20049;-52
2022/09/13 15:49:24;;;;;;;3.92;1.48;;;;;;;26.02;65.21;99851.56;8325717;28;20043;-50
2022/09/13 15:53:24;;;;;;;4.82;1.30;;;;;;;25.97;65.32;99843.13;8338705;28;20029;-50
2022/09/13 15:57:27;;;;;;;2.83;1.60;;;;;;;25.82;66.86;99840.16;8333462;28;20041;-51
2022/09/13 16:01:28;;;;;;;6.82;1.50;;;;;;;25.71;67.54;99854.94;8356405;28;20041;-50
2022/09/13 16:05:28;;;;;;;7.63;1.55;;;;;;;25.79;66.91;99857.28;8353569;28;20041;-48
2022/09/13 16:09:29;;;;;;;3.88;1.30;;;;;;;25.70;67.79;99860.72;8350957;28;20029;-49
2022/09/13 16:13:29;;;;;;;7.63;1.30;;;;;;;25.62;68.69;99855.63;8350060;28;20132;-49
2022/09/13 16:17:30;;;;;;;7.03;1.63;;;;;;;25.14;73.38;99861.75;8329766;28;20037;-49
2022/09/13 16:21:30;;;;;;;4.33;1.70;;;;;;;24.78;74.70;99859.44;8319945;28;20053;-51
2022/09/13 16:25:30;;;;;;;6.57;1.73;;;;;;;24.73;74.76;99867.66;8319865;28;20280;-51
2022/09/13 16:29:31;;;;;;;6.32;1.77;;;;;;;24.58;76.98;99864.56;8321177;28;20045;-49
2022/09/13 16:33:32;;;;;;;5.18;1.67;;;;;;;24.34;79.18;99876.78;8317051;28;20177;-49
2022/09/13 16:37:33;;;;;;;6.10;2.17;;;;;;;24.04;81.33;99885.28;8319793;28;20037;-49
2022/09/13 16:41:33;;;;;;;4.00;2.10;;;;;;;23.74;82.53;99878.19;8320631;28;20099;-49
2022/09/13 16:45:37;;;;;;;8.00;2.00;;;;;;;23.52;83.73;99863.31;8322177;28;20033;-50
2022/09/13 16:49:38;;;;;;;5.32;2.50;;;;;;;23.37;85.45;99876.72;8325744;28;20042;-50
2022/09/13 16:53:41;;;;;;;7.22;3.33;;;;;;;23.02;90.15;99871.97;8320006;28;20495;-49
2022/09/13 16:57:44;;;;;;;27.27;13.90;;;;;;;22.76;97.16;99872.41;8328175;28;20045;-50
2022/09/13 17:01:44;;;;;;;19.83;11.82;;;;;;;22.64;98.91;99876.19;8344656;28;20043;-49
2022/09/13 17:05:57;;;;;;;19.00;11.38;;;;;;;22.42;100.00;99877.72;8320193;28;20438;-52
2022/09/13 17:09:58;;;;;;;17.05;6.53;;;;;;;22.19;100.00;99888.63;8327759;28;20072;-49
2022/09/13 17:14:01;;;;;;;15.57;8.25;;;;;;;22.00;100.00;99881.44;8329301;28;20068;-51
2022/09/13 17:18:02;;;;;;;8.27;6.35;;;;;;;21.85;100.00;99876.31;8329786;28;20041;-52
2022/09/13 17:22:04;;;;;;;4.20;2.92;;;;;;;21.78;100.00;99886.56;8318481;28;20044;-50
2022/09/13 17:26:05;;;;;;;4.63;2.30;;;;;;;21.71;100.00;99896.75;8318000;28;20291;-51
2022/09/13 17:30:06;;;;;;;5.60;2.58;;;;;;;21.56;100.00;99898.19;8320060;28;20037;-49
2022/09/13 17:34:07;;;;;;;2.85;1.90;;;;;;;21.65;100.00;99886.66;8319724;28;20038;-51
2022/09/13 17:38:07;;;;;;;3.25;1.45;;;;;;;21.50;100.00;99890.84;8330262;28;20065;-51
2022/09/13 17:42:07;;;;;;;2.20;1.40;;;;;;;21.46;100.00;99882.19;8327308;28;20042;-50
2022/09/13 17:46:11;;;;;;;4.23;1.60;;;;;;;21.45;100.00;99886.03;8323916;28;20044;-52
2022/09/13 17:50:12;;;;;;;2.28;1.38;;;;;;;21.33;100.00;99882.31;8317395;28;20276;-52
2022/09/13 17:54:12;;;;;;;3.60;2.00;;;;;;;21.20;100.00;99887.94;8322844;28;20029;-52
2022/09/13 17:58:13;;;;;;;4.70;1.90;;;;;;;21.20;100.00;99891.50;8320333;28;20045;-52
2022/09/13 18:02:14;;;;;;;2.47;1.70;;;;;;;21.10;100.00;99893.06;8332048;28;20132;-49
2022/09/13 18:06:14;;;;;;;3.38;1.98;;;;;;;21.08;100.00;99889.72;8337619;28;20040;-52
2022/09/13 18:10:16;;;;;;;2.63;2.03;;;;;;;21.06;100.00;99891.84;8332898;28;20050;-52
2022/09/13 18:14:17;;;;;;;5.82;2.50;;;;;;;20.97;100.00;99890.44;8347377;28;20041;-49
2022/09/13 18:18:18;;;;;;;3.53;2.92;;;;;;;20.95;100.00;99889.84;8336578;28;20039;-52
2022/09/13 18:22:18;;;;;;;3.93;3.10;;;;;;;20.88;100.00;99897.22;8330589;28;20042;-50
2022/09/13 18:26:21;;;;;;;6.38;3.42;;;;;;;20.84;100.00;99882.25;8336920;28;20283;-49
2022/09/13 18:30:22;;;;;;;4.80;3.40;;;;;;;20.91;100.00;99878.41;8339646;28;20037;-52
2022/09/13 18:34:22;;;;;;;5.63;3.20;;;;;;;20.92;100.00;99880.09;8337845;28;20045;-51
2022/09/13 18:38:23;;;;;;;7.70;2.70;;;;;;;20.88;100.00;99873.34;8359688;28;20280;-49
2022/09/13 18:42:23;;;;;;;5.53;3.13;;;;;;;20.76;100.00;99874.28;8338602;28;20296;-52
2022/09/13 18:46:27;;;;;;;7.28;4.15;;;;;;;20.86;100.00;99869.16;8337927;28;20430;-51
2022/09/13 18:50:27;;;;;;;9.52;3.92;;;;;;;20.72;100.00;99873.03;8345237;28;20671;-52
2022/09/13 18:54:27;;;;;;;7.18;3.25;;;;;;;20.51;100.00;99871.50;8340544;28;20402;-50
2022/09/13 18:58:30;;;;;;;4.93;3.13;;;;;;;20.38;100.00;99857.00;8329793;28;20050;-50
2022/09/13 19:02:31;;;;;;;6.22;3.47;;;;;;;20.42;100.00;99860.97;8329746;28;20495;-49
2022/09/13 19:06:34;;;;;;;7.90;3.10;;;;;;;20.20;100.00;99859.63;8317389;28;20030;-51
2022/09/13 19:10:35;;;;;;;3.47;3.10;;;;;;;20.31;100.00;99853.44;8323291;28;20503;-52
2022/09/13 19:14:36;;;;;;;8.30;3.95;;;;;;;20.18;100.00;99837.88;8333253;28;20033;-50
2022/09/13 19:18:37;;;;;;;7.63;4.18;;;;;;;20.43;100.00;99838.78;8336727;28;20030;-53
2022/09/13 19:22:38;;;;;;;4.65;3.65;;;;;;;20.34;100.00;99842.03;8323160;28;20041;-53
2022/09/13 19:26:38;;;;;;;4.77;3.53;;;;;;;20.43;100.00;99852.50;8343553;28;20067;-53
2022/09/13 19:30:39;;;;;;;5.03;3.20;;;;;;;20.27;100.00;99852.19;8336450;28;20288;-49
2022/09/13 19:34:39;;;;;;;6.30;4.05;;;;;;;20.25;100.00;99848.84;8335442;28;20072;-49
2022/09/13 19:38:40;;;;;;;6.63;4.10;;;;;;;20.38;100.00;99859.72;8331108;28;20045;-50
2022/09/13 19:42:41;;;;;;;8.25;4.10;;;;;;;20.50;100.00;99866.22;8342331;28;20098;-53
2022/09/13 19:46:42;;;;;;;5.30;4.03;;;;;;;20.39;100.00;99856.78;8337387;28;20486;-51
2022/09/13 19:50:42;;;;;;;6.28;3.80;;;;;;;20.17;100.00;99847.19;8353822;28;20743;-51
2022/09/13 19:54:42;;;;;;;6.00;4.22;;;;;;;20.25;100.00;99859.81;8352992;28;20437;-49
2022/09/13 19:58:43;;;;;;;5.30;3.63;;;;;;;20.16;100.00;99850.13;8352092;28;20063;-52
2022/09/13 20:02:46;;;;;;;4.90;3.80;;;;;;;20.16;100.00;99839.16;8356253;28;20283;-49
2022/09/13 20:06:49;;;;;;;5.50;3.63;;;;;;;19.99;100.00;99835.19;8353644;28;20110;-50
2022/09/13 20:10:49;;;;;;;5.07;3.65;;;;;;;20.01;100.00;99830.31;8355579;28;20032;-52
2022/09/13 20:14:50;;;;;;;5.32;3.28;;;;;;;20.00;100.00;99834.16;8338223;28;20564;-49